Gretna, FL (32332)

7:24 PM EST on March 01, 2015 (GMT -0500)
Jamieson | Change Station
CLOSE
Current Station
Personal Weather Station
Location: Havana, FL
Elevation: 269 ft
Nearby Weather Stations
Active Advisory: Flood Warning

Elev 269 ft 30.68 °N, 84.45 °W | Updated 14 seconds ago

Overcast
Overcast
57.6 °F
Feels Like 57.6 °F
N
0.0
Wind Variable Wind from North
Gusts 0.0 mph

Today
High -- | Low -- °F
--% Chance of Precip.
Yesterday
High -- | Low -- °F
Precip. -- in
7:05 AM 6:37 PM
Waxing Gibbous, 88% visible
Pressure 30.34 in
Visibility 2.5 miles
Clouds Overcast 900 ft
Dew Point 57 °F
Humidity 99%
Rainfall 0.00 in
Snow Depth Not available.
UV 0 out of 12
Pollen 8.10 out of 12
Air Quality Not available.
Flu Activity Not available.
SPECI KTLH 020021Z 02003KT 2 1/2SM BR OVC009 16/14 A3034 RMK AO2 TWR VIS 3 CIG 005V011 T01560139 $

More Conditions Fewer Conditions

Pressure 30.34 in
Visibility 2.5 miles
Clouds Overcast 900 ft
Dew Point 57 °F
Humidity 99%
Rainfall 0.00 in
Snow Depth Not available.
UV 0 out of 12
Pollen 8.10 out of 12
Air Quality Not available.
Flu Activity Not available.
SPECI KTLH 020021Z 02003KT 2 1/2SM BR OVC009 16/14 A3034 RMK AO2 TWR VIS 3 CIG 005V011 T01560139 $

More Conditions Fewer Conditions

10-Day Weather Forecast

Almanac

Astronomy

Mar. 01, 2015 Rise Set
Actual Time
Civil Twilight
Nautical Twilight
Astronomical Twilight
Moon
Length of Visible Light
Length of Day
Tomorrow will be .
, % of the Moon is Illuminated

Today's Extremes

State Highs State Lows

Community

WunderPhotos

Upload Photos

1,801,647 photos uploaded!

WunderBlogs® & News

Nearby

Air Quality

  Air Quality AQ Index Pollutant
Not available.

Snow Depth

Station Depth Elevation

Earthquake Activity

City Distance Mag. Time & Date
Minimum magnitude displayed is 2.5.

Coastal Water Temperatures

Place Temperature

Nearby Weather Stations

Flood Warning
Statement as of 6:01 PM EST on March 01, 2015

The National Weather Service in Tallahassee has issued a

* Flood Warning for the Ochlockonee River near Concord (cr 12).
* From this evening, or until the warning is cancelled.
* At 5:00 PM Sunday the stage was 35.9 feet.
* Minor flooding is forecast.
* Flood stage is 36.0 feet.
* Forecast: rise above flood stage this evening and continue to
rise to near 36.3 feet by Monday morning. The river will fall
below flood stage by Tuesday morning.
* Impact: at 36.0 feet: primary access to homes along County Highway
12 on the East Bank of the river in Leon County may become
restricted.


Lat... Lon 3069 8432 3064 8433 3058 8439 3056 8436 3068 8422